Rechercher aéroport 
image banner adimage banner ad
image banner ad

LI-SS05 - Platamona

Situé à Sassari, Italy

ICAO - , IATA -

Données fournies par Airmate  

Information générale

Coordonnées: N40°48'48" E8°28'9"
Élévation : 26 feet MSL.
 
Évalué:
Voir évaluations:
[VIEW]
Voir autres Aéroports à Sardinia

Données opérationnelles

Accessible au public
Heure actuelle UTC:
Heure actuelle locale:
Météo à : LIEA - Alghero/Fertilia ( 25 km )
METAR: LIEA 261150Z 29020G34KT 270V330 9999 FEW038 19/09 Q1008
TAF: TAF LIEA 261100Z 2612/2712 28020KT 9999 SCT030 TEMPO 2612/2618 30020G32KT TEMPO 2700/2706 TSRA
Voir NOTAMs / SUP AIP / TFR affectant cet aéroport [VIEW]
Fréquences de communication: [VIEW]

Pistes:

Identifiant RWYQFULongueur (ft)Largeur (ft)SurfaceLDA (ft)
11193565GRASS
29193565GRASS

Coordonnées de l'aéroport

Adresse: Sassari Italy

Vue satellite de LI-SS05